sensor_id;sensor_type;location;lat;lon;timestamp;P1;P2;P0
72918;PMS7003;68407;55.694;26.994;2023-04-01T00:01:13;7.2;6.2;4.6
72918;PMS7003;68407;55.694;26.994;2023-04-01T00:06:02;7.9;6.9;5
72918;PMS7003;68407;55.694;26.994;2023-04-01T00:11:44;8.5;7;5.3
72918;PMS7003;68407;55.694;26.994;2023-04-01T00:16:02;8.7;7.3;5.6
72918;PMS7003;68407;55.694;26.994;2023-04-01T00:21:02;12;8.7;6.3
72918;PMS7003;68407;55.694;26.994;2023-04-01T00:26:25;10.5;8.8;6.5
72918;PMS7003;68407;55.694;26.994;2023-04-01T00:31:10;13.2;10.3;7.1
72918;PMS7003;68407;55.694;26.994;2023-04-01T00:36:44;14.4;10.5;6.9
72918;PMS7003;68407;55.694;26.994;2023-04-01T00:41:20;13.5;10.7;7.5
72918;PMS7003;68407;55.694;26.994;2023-04-01T00:46:12;13.2;9.8;6.9
72918;PMS7003;68407;55.694;26.994;2023-04-01T00:51:34;12.5;10.6;7
72918;PMS7003;68407;55.694;26.994;2023-04-01T00:56:03;12.7;9.7;7.1
72918;PMS7003;68407;55.694;26.994;2023-04-01T01:01:40;12.8;9.9;7.3
72918;PMS7003;68407;55.694;26.994;2023-04-01T01:06:26;15.2;11.4;7.9
72918;PMS7003;68407;55.694;26.994;2023-04-01T01:11:02;13.9;11.3;7.8
72918;PMS7003;68407;55.694;26.994;2023-04-01T01:16:38;15.3;12.3;8.6
72918;PMS7003;68407;55.694;26.994;2023-04-01T01:21:06;14.4;11.3;7.9
72918;PMS7003;68407;55.694;26.994;2023-04-01T01:26:52;13;9.4;6.7
72918;PMS7003;68407;55.694;26.994;2023-04-01T01:31:14;11.6;8;5.7
72918;PMS7003;68407;55.694;26.994;2023-04-01T01:36:03;8.3;6.5;4.7
72918;PMS7003;68407;55.694;26.994;2023-04-01T01:41:20;7.2;5.4;4.2
72918;PMS7003;68407;55.694;26.994;2023-04-01T01:46:13;8.4;6.3;4.8
72918;PMS7003;68407;55.694;26.994;2023-04-01T01:51:42;8.9;6.9;4.9
72918;PMS7003;68407;55.694;26.994;2023-04-01T01:56:16;9.8;7.2;5
72918;PMS7003;68407;55.694;26.994;2023-04-01T02:01:19;9.7;7.5;5.6
72918;PMS7003;68407;55.694;26.994;2023-04-01T02:06:44;10.3;7.7;5.9
72918;PMS7003;68407;55.694;26.994;2023-04-01T02:11:13;9.6;7.6;5.5
72918;PMS7003;68407;55.694;26.994;2023-04-01T02:16:28;10.8;7.1;4.9
72918;PMS7003;68407;55.694;26.994;2023-04-01T02:21:27;9.9;7.3;4.9
72918;PMS7003;68407;55.694;26.994;2023-04-01T02:26:20;10.5;7.8;5.3
72918;PMS7003;68407;55.694;26.994;2023-04-01T02:31:42;10.5;7.6;5.2
72918;PMS7003;68407;55.694;26.994;2023-04-01T02:36:13;11;8.1;5.8
72918;PMS7003;68407;55.694;26.994;2023-04-01T02:41:26;11.1;8.2;5.9
72918;PMS7003;68407;55.694;26.994;2023-04-01T02:46:02;11.2;8.8;6.4
72918;PMS7003;68407;55.694;26.994;2023-04-01T02:51:26;10.8;9;6.1
72918;PMS7003;68407;55.694;26.994;2023-04-01T02:56:42;11.6;8.4;5.9
72918;PMS7003;68407;55.694;26.994;2023-04-01T03:01:02;12.4;9.3;6.5
72918;PMS7003;68407;55.694;26.994;2023-04-01T03:06:26;11.6;9;5.9
72918;PMS7003;68407;55.694;26.994;2023-04-01T03:11:26;9.9;7.8;5.4
72918;PMS7003;68407;55.694;26.994;2023-04-01T03:16:26;8.6;6.1;4.3
72918;PMS7003;68407;55.694;26.994;2023-04-01T03:21:42;7.1;5.5;4.1
72918;PMS7003;68407;55.694;26.994;2023-04-01T03:26:02;7.1;5.1;3.9
72918;PMS7003;68407;55.694;26.994;2023-04-01T03:31:26;6.9;5.5;4
72918;PMS7003;68407;55.694;26.994;2023-04-01T03:36:34;7.1;4.9;3.8
72918;PMS7003;68407;55.694;26.994;2023-04-01T03:41:26;7.5;5;3.7
72918;PMS7003;68407;55.694;26.994;2023-04-01T03:46:42;7.7;5.7;3.9
72918;PMS7003;68407;55.694;26.994;2023-04-01T03:51:06;7.9;5.8;4.2
72918;PMS7003;68407;55.694;26.994;2023-04-01T03:56:26;7.8;5.8;4.2
72918;PMS7003;68407;55.694;26.994;2023-04-01T04:01:26;7.2;5.2;3.6
72918;PMS7003;68407;55.694;26.994;2023-04-01T04:06:27;7.4;5.4;4.1
72918;PMS7003;68407;55.694;26.994;2023-04-01T04:11:36;7.8;6.2;4.4
72918;PMS7003;68407;55.694;26.994;2023-04-01T04:16:18;8.6;6.4;4.5
72918;PMS7003;68407;55.694;26.994;2023-04-01T04:21:26;8.9;6.3;4.6
72918;PMS7003;68407;55.694;26.994;2023-04-01T04:26:16;8.4;5.8;3.6
72918;PMS7003;68407;55.694;26.994;2023-04-01T04:31:26;7.6;5.2;3.8
72918;PMS7003;68407;55.694;26.994;2023-04-01T04:36:42;6.8;5.3;3.5
72918;PMS7003;68407;55.694;26.994;2023-04-01T04:41:00;7.9;6;4
72918;PMS7003;68407;55.694;26.994;2023-04-01T04:46:26;8;5.6;4
72918;PMS7003;68407;55.694;26.994;2023-04-01T04:51:24;8.7;5.5;3.6
72918;PMS7003;68407;55.694;26.994;2023-04-01T04:56:26;8.5;5.7;3.8
72918;PMS7003;68407;55.694;26.994;2023-04-01T05:01:42;9;6;4.1
72918;PMS7003;68407;55.694;26.994;2023-04-01T05:06:13;8.7;5.7;3.9
72918;PMS7003;68407;55.694;26.994;2023-04-01T05:11:26;7.6;5.2;3.8
72918;PMS7003;68407;55.694;26.994;2023-04-01T05:16:26;7.4;5.1;3.7
72918;PMS7003;68407;55.694;26.994;2023-04-01T05:21:26;6.1;5.2;3.8
72918;PMS7003;68407;55.694;26.994;2023-04-01T05:26:28;5.7;4.2;3.2
72918;PMS7003;68407;55.694;26.994;2023-04-01T05:31:02;5.4;4.2;3.1
72918;PMS7003;68407;55.694;26.994;2023-04-01T05:36:42;5.2;3.8;2.8
72918;PMS7003;68407;55.694;26.994;2023-04-01T05:41:30;5;3.8;3.1
72918;PMS7003;68407;55.694;26.994;2023-04-01T05:46:40;4.1;3.6;3
72918;PMS7003;68407;55.694;26.994;2023-04-01T05:51:20;4;3;2.4
72918;PMS7003;68407;55.694;26.994;2023-04-01T05:56:02;4;2.6;2
72918;PMS7003;68407;55.694;26.994;2023-04-01T06:01:12;3.5;2.9;2.5
72918;PMS7003;68407;55.694;26.994;2023-04-01T06:06:32;4.3;3;2.4
72918;PMS7003;68407;55.694;26.994;2023-04-01T06:11:50;2.6;2.3;1.8
72918;PMS7003;68407;55.694;26.994;2023-04-01T06:16:22;3.1;2.5;2
72918;PMS7003;68407;55.694;26.994;2023-04-01T06:21:19;3.1;2.4;1.9
72918;PMS7003;68407;55.694;26.994;2023-04-01T06:26:14;3.3;2.6;2.3
72918;PMS7003;68407;55.694;26.994;2023-04-01T06:31:34;4.1;3;2.3
72918;PMS7003;68407;55.694;26.994;2023-04-01T06:36:42;3.8;2.9;2.2
72918;PMS7003;68407;55.694;26.994;2023-04-01T06:41:25;4.2;3;2.4
72918;PMS7003;68407;55.694;26.994;2023-04-01T06:46:14;4.2;3.3;2.7
72918;PMS7003;68407;55.694;26.994;2023-04-01T06:51:21;3.3;2.9;2.6
72918;PMS7003;68407;55.694;26.994;2023-04-01T06:56:32;4.2;3.5;2.8
72918;PMS7003;68407;55.694;26.994;2023-04-01T07:01:44;3.6;3.2;2.7
72918;PMS7003;68407;55.694;26.994;2023-04-01T07:06:03;4;3.3;2.8
72918;PMS7003;68407;55.694;26.994;2023-04-01T07:11:11;4;3.3;2.6
72918;PMS7003;68407;55.694;26.994;2023-04-01T07:16:05;4.5;3.4;2.7
72918;PMS7003;68407;55.694;26.994;2023-04-01T07:21:17;3.6;3.3;2.7
72918;PMS7003;68407;55.694;26.994;2023-04-01T07:26:43;4.2;3.1;2.6
72918;PMS7003;68407;55.694;26.994;2023-04-01T07:31:15;3.7;3;2.4
72918;PMS7003;68407;55.694;26.994;2023-04-01T07:36:13;3.7;2.9;2.4
72918;PMS7003;68407;55.694;26.994;2023-04-01T07:41:23;3.6;3.2;2.6
72918;PMS7003;68407;55.694;26.994;2023-04-01T07:46:38;3.4;3;2.5
72918;PMS7003;68407;55.694;26.994;2023-04-01T07:51:43;3.8;2.9;2.6
72918;PMS7003;68407;55.694;26.994;2023-04-01T07:56:22;3.8;3;2.5
72918;PMS7003;68407;55.694;26.994;2023-04-01T08:01:13;4.6;3.4;2.7
72918;PMS7003;68407;55.694;26.994;2023-04-01T08:06:04;3.8;3;2.6
72918;PMS7003;68407;55.694;26.994;2023-04-01T08:11:36;3.9;3.3;2.6
72918;PMS7003;68407;55.694;26.994;2023-04-01T08:16:45;3.2;2.8;2.3
72918;PMS7003;68407;55.694;26.994;2023-04-01T08:21:21;2.7;2.1;1.7
72918;PMS7003;68407;55.694;26.994;2023-04-01T08:26:23;3.8;2.6;2.2
72918;PMS7003;68407;55.694;26.994;2023-04-01T08:31:29;3.4;2.8;2.3
72918;PMS7003;68407;55.694;26.994;2023-04-01T08:36:31;3.6;2.8;2.3
72918;PMS7003;68407;55.694;26.994;2023-04-01T08:41:44;3.1;2.7;2.1
72918;PMS7003;68407;55.694;26.994;2023-04-01T08:46:04;3.8;2.8;2.2
72918;PMS7003;68407;55.694;26.994;2023-04-01T08:51:52;4.9;4.3;3.3
72918;PMS7003;68407;55.694;26.994;2023-04-01T08:56:10;2.9;2.2;1.9
72918;PMS7003;68407;55.694;26.994;2023-04-01T09:01:34;2.9;2;1.7
72918;PMS7003;68407;55.694;26.994;2023-04-01T09:06:45;3.2;2.4;1.9
72918;PMS7003;68407;55.694;26.994;2023-04-01T09:11:26;3.4;2.2;1.9
72918;PMS7003;68407;55.694;26.994;2023-04-01T09:16:15;3;2;1.8
72918;PMS7003;68407;55.694;26.994;2023-04-01T09:21:24;2.5;2;1.7
72918;PMS7003;68407;55.694;26.994;2023-04-01T09:26:38;2.8;2.5;2.1
72918;PMS7003;68407;55.694;26.994;2023-04-01T09:31:48;3.2;2.8;2.2
72918;PMS7003;68407;55.694;26.994;2023-04-01T09:36:24;3.5;2.8;2.2
72918;PMS7003;68407;55.694;26.994;2023-04-01T09:41:23;2.7;2.2;1.8
72918;PMS7003;68407;55.694;26.994;2023-04-01T09:46:23;3.5;2.7;2.2
72918;PMS7003;68407;55.694;26.994;2023-04-01T09:51:35;2.9;2.2;1.9
72918;PMS7003;68407;55.694;26.994;2023-04-01T10:01:43;3.5;2.5;2.1
72918;PMS7003;68407;55.694;26.994;2023-04-01T10:11:28;3.7;2.7;2.2
72918;PMS7003;68407;55.694;26.994;2023-04-01T10:16:37;2.7;2.3;1.8
72918;PMS7003;68407;55.694;26.994;2023-04-01T10:21:49;3;2.6;2.1
72918;PMS7003;68407;55.694;26.994;2023-04-01T10:26:38;3;2.3;1.9
72918;PMS7003;68407;55.694;26.994;2023-04-01T10:31:25;3.4;2.8;2.2
72918;PMS7003;68407;55.694;26.994;2023-04-01T10:36:35;3.3;2.6;2.1
72918;PMS7003;68407;55.694;26.994;2023-04-01T10:41:36;3.6;2.5;2.1
72918;PMS7003;68407;55.694;26.994;2023-04-01T10:47:16;2.8;2.6;2
72918;PMS7003;68407;55.694;26.994;2023-04-01T10:51:44;9;7.5;5.6
72918;PMS7003;68407;55.694;26.994;2023-04-01T10:56:25;2.1;1.5;1.1
72918;PMS7003;68407;55.694;26.994;2023-04-01T11:01:16;1.7;1.4;1.3
72918;PMS7003;68407;55.694;26.994;2023-04-01T11:07:52;2.2;1.8;1.4
72918;PMS7003;68407;55.694;26.994;2023-04-01T11:12:03;2.2;1.6;1.2
72918;PMS7003;68407;55.694;26.994;2023-04-01T11:16:37;2.5;1.6;1.4
72918;PMS7003;68407;55.694;26.994;2023-04-01T11:21:30;1.7;1.4;1.2
72918;PMS7003;68407;55.694;26.994;2023-04-01T11:26:21;1.8;1.2;1
72918;PMS7003;68407;55.694;26.994;2023-04-01T11:31:35;1.4;1.3;1.1
72918;PMS7003;68407;55.694;26.994;2023-04-01T11:36:43;1.8;1.6;1.3
72918;PMS7003;68407;55.694;26.994;2023-04-01T11:41:34;2;1.6;1.3
72918;PMS7003;68407;55.694;26.994;2023-04-01T11:46:11;3.4;2.9;2.4
72918;PMS7003;68407;55.694;26.994;2023-04-01T11:51:22;2.4;1.7;1.6
72918;PMS7003;68407;55.694;26.994;2023-04-01T11:56:38;13.8;12.6;10.7
72918;PMS7003;68407;55.694;26.994;2023-04-01T12:01:44;7.8;6.8;5.8
72918;PMS7003;68407;55.694;26.994;2023-04-01T12:06:18;3.5;3.1;2.7
72918;PMS7003;68407;55.694;26.994;2023-04-01T12:11:21;4.2;3.2;2.6
72918;PMS7003;68407;55.694;26.994;2023-04-01T12:16:23;4;3;2.4
72918;PMS7003;68407;55.694;26.994;2023-04-01T12:21:34;6.2;5.8;4.8
72918;PMS7003;68407;55.694;26.994;2023-04-01T12:26:43;8;7.2;5.6
72918;PMS7003;68407;55.694;26.994;2023-04-01T12:31:34;2.2;1.8;1.6
72918;PMS7003;68407;55.694;26.994;2023-04-01T12:36:23;3.6;3.1;2.8
72918;PMS7003;68407;55.694;26.994;2023-04-01T12:41:21;3.1;2.5;2.1
72918;PMS7003;68407;55.694;26.994;2023-04-01T12:46:31;4.1;3.5;3
72918;PMS7003;68407;55.694;26.994;2023-04-01T12:51:50;4.1;3;2.5
72918;PMS7003;68407;55.694;26.994;2023-04-01T12:56:36;3.7;2.6;2
72918;PMS7003;68407;55.694;26.994;2023-04-01T13:01:07;4.2;3.3;2.7
72918;PMS7003;68407;55.694;26.994;2023-04-01T13:06:24;6.8;5.4;4.2
72918;PMS7003;68407;55.694;26.994;2023-04-01T13:11:27;20.8;17;11.7
72918;PMS7003;68407;55.694;26.994;2023-04-01T13:16:43;7.4;6.1;5
72918;PMS7003;68407;55.694;26.994;2023-04-01T13:21:37;5.5;4.4;3.4
72918;PMS7003;68407;55.694;26.994;2023-04-01T13:26:13;9;7.9;6.3
72918;PMS7003;68407;55.694;26.994;2023-04-01T13:31:25;8.1;7.3;6
72918;PMS7003;68407;55.694;26.994;2023-04-01T13:36:34;4.1;2.8;2.3
72918;PMS7003;68407;55.694;26.994;2023-04-01T13:41:47;3.3;2.6;2.1
72918;PMS7003;68407;55.694;26.994;2023-04-01T13:46:39;2.8;2.4;2
72918;PMS7003;68407;55.694;26.994;2023-04-01T13:52:02;3.4;3.2;2.7
72918;PMS7003;68407;55.694;26.994;2023-04-01T13:56:07;2.3;1.7;1.6
72918;PMS7003;68407;55.694;26.994;2023-04-01T14:01:35;2.4;1.4;1.2
72918;PMS7003;68407;55.694;26.994;2023-04-01T14:06:51;1.8;1.5;1.3
72918;PMS7003;68407;55.694;26.994;2023-04-01T14:11:32;4;3.8;3.2
72918;PMS7003;68407;55.694;26.994;2023-04-01T14:16:25;5.1;4.3;3.4
72918;PMS7003;68407;55.694;26.994;2023-04-01T14:21:07;3.7;3;2.6
72918;PMS7003;68407;55.694;26.994;2023-04-01T14:26:22;3.4;3;2.6
72918;PMS7003;68407;55.694;26.994;2023-04-01T14:31:38;2.8;2.3;1.9
72918;PMS7003;68407;55.694;26.994;2023-04-01T14:36:50;2;1.6;1.3
72918;PMS7003;68407;55.694;26.994;2023-04-01T14:41:17;6.2;5.6;4.8
72918;PMS7003;68407;55.694;26.994;2023-04-01T14:46:42;29.9;25.5;18.5
72918;PMS7003;68407;55.694;26.994;2023-04-01T14:51:22;17.8;15.7;11.6
72918;PMS7003;68407;55.694;26.994;2023-04-01T14:56:42;7.3;6.4;5.4
72918;PMS7003;68407;55.694;26.994;2023-04-01T15:01:47;8.2;7.4;6.2
72918;PMS7003;68407;55.694;26.994;2023-04-01T15:06:14;7.2;6.6;5.6
72918;PMS7003;68407;55.694;26.994;2023-04-01T15:11:32;5.6;4.4;3.8
72918;PMS7003;68407;55.694;26.994;2023-04-01T15:16:23;11.6;10.7;8.7
72918;PMS7003;68407;55.694;26.994;2023-04-01T15:21:06;13.1;11.4;9.1
72918;PMS7003;68407;55.694;26.994;2023-04-01T15:26:49;14.8;13.2;10.4
72918;PMS7003;68407;55.694;26.994;2023-04-01T15:31:44;16.3;14.4;11.1
72918;PMS7003;68407;55.694;26.994;2023-04-01T15:36:25;11.5;9.8;8.2
72918;PMS7003;68407;55.694;26.994;2023-04-01T15:41:45;6.5;5.3;4.1
72918;PMS7003;68407;55.694;26.994;2023-04-01T15:46:40;6.6;5.6;4.5
72918;PMS7003;68407;55.694;26.994;2023-04-01T15:51:45;5.9;5.5;4.5
72918;PMS7003;68407;55.694;26.994;2023-04-01T15:56:25;7;6;4.6
72918;PMS7003;68407;55.694;26.994;2023-04-01T16:01:44;15.3;13.5;10.2
72918;PMS7003;68407;55.694;26.994;2023-04-01T16:06:24;8.6;6.9;5.4
72918;PMS7003;68407;55.694;26.994;2023-04-01T16:11:34;16.1;13.8;10.8
72918;PMS7003;68407;55.694;26.994;2023-04-01T16:16:48;14.1;12.3;9.5
72918;PMS7003;68407;55.694;26.994;2023-04-01T16:21:11;13.1;12.3;9.6
72918;PMS7003;68407;55.694;26.994;2023-04-01T16:26:28;18.6;16.5;12.2
72918;PMS7003;68407;55.694;26.994;2023-04-01T16:31:04;34.2;29.3;20.9
72918;PMS7003;68407;55.694;26.994;2023-04-01T16:36:36;13.9;12.8;10.3
72918;PMS7003;68407;55.694;26.994;2023-04-01T16:41:47;11.5;10.1;8
72918;PMS7003;68407;55.694;26.994;2023-04-01T16:46:26;9;8.5;6.4
72918;PMS7003;68407;55.694;26.994;2023-04-01T16:51:13;8.1;7.4;5.5
72918;PMS7003;68407;55.694;26.994;2023-04-01T16:56:10;6.5;5.9;4.6
72918;PMS7003;68407;55.694;26.994;2023-04-01T17:01:43;7.1;5.8;4.6
72918;PMS7003;68407;55.694;26.994;2023-04-01T17:06:44;8.9;7.3;5.4
72918;PMS7003;68407;55.694;26.994;2023-04-01T17:11:13;6.9;5.8;4.6
72918;PMS7003;68407;55.694;26.994;2023-04-01T17:16:26;6.8;6.1;4.7
72918;PMS7003;68407;55.694;26.994;2023-04-01T17:21:04;7.1;5.9;4.7
72918;PMS7003;68407;55.694;26.994;2023-04-01T17:26:32;5.4;4.9;3.8
72918;PMS7003;68407;55.694;26.994;2023-04-01T17:31:46;9.2;7.6;6.1
72918;PMS7003;68407;55.694;26.994;2023-04-01T17:36:15;9.7;8.1;5.7
72918;PMS7003;68407;55.694;26.994;2023-04-01T17:41:21;8;6.6;5.4
72918;PMS7003;68407;55.694;26.994;2023-04-01T17:46:38;6.8;5.5;4.5
72918;PMS7003;68407;55.694;26.994;2023-04-01T17:51:19;6.9;5.7;4.3
72918;PMS7003;68407;55.694;26.994;2023-04-01T17:56:47;6.4;5.3;4.2
72918;PMS7003;68407;55.694;26.994;2023-04-01T18:01:40;7.4;6.2;4.9
72918;PMS7003;68407;55.694;26.994;2023-04-01T18:06:11;7.6;6.1;4.6
72918;PMS7003;68407;55.694;26.994;2023-04-01T18:11:05;12;10.3;7.6
72918;PMS7003;68407;55.694;26.994;2023-04-01T18:16:37;7.3;6.1;4.8
72918;PMS7003;68407;55.694;26.994;2023-04-01T18:21:45;6.7;5.6;4.6
72918;PMS7003;68407;55.694;26.994;2023-04-01T18:26:33;6.9;6;4.8
72918;PMS7003;68407;55.694;26.994;2023-04-01T18:31:20;5.2;4.5;3.5
72918;PMS7003;68407;55.694;26.994;2023-04-01T18:36:13;8;6.5;4.9
72918;PMS7003;68407;55.694;26.994;2023-04-01T18:41:34;6.8;5.5;4.3
72918;PMS7003;68407;55.694;26.994;2023-04-01T18:46:47;6.6;5.6;4.7
72918;PMS7003;68407;55.694;26.994;2023-04-01T18:51:35;6.1;5.1;4.1
72918;PMS7003;68407;55.694;26.994;2023-04-01T18:56:24;6.3;5.2;4.1
72918;PMS7003;68407;55.694;26.994;2023-04-01T19:01:19;6.1;5.1;3.8
72918;PMS7003;68407;55.694;26.994;2023-04-01T19:06:32;5.7;4.8;3.9
72918;PMS7003;68407;55.694;26.994;2023-04-01T19:11:44;7;6.1;4.5
72918;PMS7003;68407;55.694;26.994;2023-04-01T19:16:21;6.5;5.6;4.4
72918;PMS7003;68407;55.694;26.994;2023-04-01T19:21:27;6.1;5.3;4.3
72918;PMS7003;68407;55.694;26.994;2023-04-01T19:26:11;7;5.3;4.3
72918;PMS7003;68407;55.694;26.994;2023-04-01T19:31:22;6.1;5;3.6
72918;PMS7003;68407;55.694;26.994;2023-04-01T19:36:45;6.7;5.6;4.4
72918;PMS7003;68407;55.694;26.994;2023-04-01T19:41:36;6.1;5.1;4
72918;PMS7003;68407;55.694;26.994;2023-04-01T19:46:20;5.8;4.9;3.8
72918;PMS7003;68407;55.694;26.994;2023-04-01T19:51:12;6.2;5.3;4.1
72918;PMS7003;68407;55.694;26.994;2023-04-01T19:56:34;6.7;5.1;4.2
72918;PMS7003;68407;55.694;26.994;2023-04-01T20:01:43;5;4.8;4
72918;PMS7003;68407;55.694;26.994;2023-04-01T20:06:25;5.8;4.8;3.6
72918;PMS7003;68407;55.694;26.994;2023-04-01T20:11:14;5;4;3.3
72918;PMS7003;68407;55.694;26.994;2023-04-01T20:16:02;5.6;4.6;3.8
72918;PMS7003;68407;55.694;26.994;2023-04-01T20:21:34;5.2;4.2;3.5
72918;PMS7003;68407;55.694;26.994;2023-04-01T20:26:41;4;3.5;2.6
72918;PMS7003;68407;55.694;26.994;2023-04-01T20:31:31;5.2;4.6;3.5
72918;PMS7003;68407;55.694;26.994;2023-04-01T20:36:11;4.8;4.2;3.3
72918;PMS7003;68407;55.694;26.994;2023-04-01T20:41:02;4.7;3.9;3.1
72918;PMS7003;68407;55.694;26.994;2023-04-01T20:46:13;4.8;4.1;3.3
72918;PMS7003;68407;55.694;26.994;2023-04-01T20:51:43;4;3.3;2.7
72918;PMS7003;68407;55.694;26.994;2023-04-01T20:56:46;4.6;3.4;2.7
72918;PMS7003;68407;55.694;26.994;2023-04-01T21:01:13;4.6;3.7;3.1
72918;PMS7003;68407;55.694;26.994;2023-04-01T21:06:39;4.6;4;3.3
72918;PMS7003;68407;55.694;26.994;2023-04-01T21:11:35;4.6;4.2;3.4
72918;PMS7003;68407;55.694;26.994;2023-04-01T21:16:43;4.5;3.6;3.1
72918;PMS7003;68407;55.694;26.994;2023-04-01T21:21:37;4.5;3.7;3
72918;PMS7003;68407;55.694;26.994;2023-04-01T21:26:04;4.3;3.5;3
72918;PMS7003;68407;55.694;26.994;2023-04-01T21:31:04;4;3;2.5
72918;PMS7003;68407;55.694;26.994;2023-04-01T21:36:35;3.6;3.1;2.6
72918;PMS7003;68407;55.694;26.994;2023-04-01T21:41:47;3.5;3;2.4
72918;PMS7003;68407;55.694;26.994;2023-04-01T21:46:46;3.8;2.9;2.5
72918;PMS7003;68407;55.694;26.994;2023-04-01T21:56:17;3.6;2.5;2.1
72918;PMS7003;68407;55.694;26.994;2023-04-01T22:01:04;3.5;2.8;2.3
72918;PMS7003;68407;55.694;26.994;2023-04-01T22:06:41;2.8;2.1;1.7
72918;PMS7003;68407;55.694;26.994;2023-04-01T22:11:34;3.8;2.5;2.2
72918;PMS7003;68407;55.694;26.994;2023-04-01T22:16:20;2.9;2.4;2.1
72918;PMS7003;68407;55.694;26.994;2023-04-01T22:21:03;2.8;2.3;1.9
72918;PMS7003;68407;55.694;26.994;2023-04-01T22:26:32;2.4;2.1;1.7
72918;PMS7003;68407;55.694;26.994;2023-04-01T22:31:43;2.6;1.9;1.5
72918;PMS7003;68407;55.694;26.994;2023-04-01T22:36:18;2.6;2.4;2.1
72918;PMS7003;68407;55.694;26.994;2023-04-01T22:41:49;2.8;2.2;1.8
72918;PMS7003;68407;55.694;26.994;2023-04-01T22:46:32;3.2;2.3;2
72918;PMS7003;68407;55.694;26.994;2023-04-01T22:51:41;2.7;2.2;1.8
72918;PMS7003;68407;55.694;26.994;2023-04-01T22:56:36;3;2.5;2.1
72918;PMS7003;68407;55.694;26.994;2023-04-01T23:01:07;2.7;2.7;2.3
72918;PMS7003;68407;55.694;26.994;2023-04-01T23:06:42;2.8;2.6;2.3
72918;PMS7003;68407;55.694;26.994;2023-04-01T23:11:01;2.8;2.3;2
72918;PMS7003;68407;55.694;26.994;2023-04-01T23:16:42;2.8;2.2;1.9
72918;PMS7003;68407;55.694;26.994;2023-04-01T23:21:34;2.4;2.2;1.8
72918;PMS7003;68407;55.694;26.994;2023-04-01T23:26:16;2.3;1.8;1.7
72918;PMS7003;68407;55.694;26.994;2023-04-01T23:31:39;2.1;1.7;1.5
72918;PMS7003;68407;55.694;26.994;2023-04-01T23:36:10;1.4;1.2;0.9
72918;PMS7003;68407;55.694;26.994;2023-04-01T23:41:41;2.5;1.8;1.6
72918;PMS7003;68407;55.694;26.994;2023-04-01T23:46:33;1.5;1.2;1.1
72918;PMS7003;68407;55.694;26.994;2023-04-01T23:51:17;1.9;1.3;1.1
72918;PMS7003;68407;55.694;26.994;2023-04-01T23:56:41;1.3;1.2;1
